VVPQ

Phu Quoc Airport

Duong Dong, Vietnam
TAF VVPQ 160500Z 1606/1706 08007KT 9999 SCT017 SCT040
Issued Valid From Valid To
Jan-16 @ 05:00 UTC
(2 hours ago)
Jan-16 @ 06:00 UTC
(33 minutes ago)
Jan-17 @ 06:00 UTC
(in 23 hours)
Jan-16 @ 06:00 to Jan-17 @ 06:00
TAF VVPQ 160500Z 1606/1706 08007KT 9999 SCT017 SCT040
Wind Visibility Clouds
80° at 7 knots 10,000+ meters
  • Scattered at 1,700' AGL
  • Scattered at 4,000' AGL
TAF VVPQ 160500Z 1606/1706 08007KT 9999 SCT017 SCT040
Issued Jan-16 @ 05:00 UTC
(2 hours ago)
Valid From Jan-16 @ 06:00 UTC
(33 minutes ago)
Valid To Jan-17 @ 06:00 UTC
(in 23 hours)
Jan-16 @ 06:00 - Jan-17 @ 06:00
Wind Visibility
80° at 7 knots 10,000+ meters
Clouds
  • Scattered at 1,700' AGL
  • Scattered at 4,000' AGL